Latest Weather Observations for Gatton

IDQ60901

Issued at 8:01 pm EST Saturday 4 July 2015 (issued every 10 minutes, with the page automatically refreshed every 10 minutes)

About weather observations | Map of Brisbane area stations | Latest observations for Brisbane area | Other Formats
Station Details ID: 040082 Name: UNIVERSITY OF QUEENSLAND GATTON Lat: -27.54 Lon: 152.34 Height: 89.0 m
Data from the previous 72 hours. | See also: Recent months at Gatton
Date/Time
EST
Tmp

°C
App
Tmp
°C
Dew
Point
°C
Rel
Hum
%
Delta-T

°C
Wind Press
QNH
hPa
Press
MSL
hPa
Rain
since
9 am
mm
Dir
 
Spd
km/h
Gust
km/h
Spd
kts
Gust
kts
04/08:00pm 9.0 8.2 6.6 85 1.1 CALM 0 0 0 0 - - 0.0
04/07:30pm 10.1 9.6 7.9 86 1.1 CALM 0 0 0 0 - - 0.0
04/07:00pm 11.0 10.5 8.0 82 1.5 CALM 0 0 0 0 - - 0.0
04/06:30pm 12.3 10.7 8.8 79 1.8 N 7 9 4 5 - - 0.0
04/06:00pm 13.2 11.5 8.5 73 2.4 NNE 7 9 4 5 - - 0.0
04/05:30pm 15.5 13.7 9.4 67 3.2 NNE 9 11 5 6 - - 0.0
04/05:00pm 16.8 14.6 9.2 61 4.0 NNE 11 13 6 7 - - 0.0
04/04:30pm 19.0 17.2 9.5 54 5.0 NE 9 15 5 8 - - 0.0
04/04:00pm 19.9 18.2 9.8 52 5.4 NE 9 13 5 7 - - 0.0
04/03:30pm 20.3 18.9 9.5 50 5.8 NE 7 17 4 9 - - 0.0
04/03:00pm 20.8 19.6 9.4 48 6.1 N 6 9 3 5 - - 0.0
04/02:30pm 20.5 19.0 9.1 48 6.1 NNE 7 15 4 8 - - 0.0
04/02:00pm 20.2 18.7 9.2 49 5.8 ENE 7 13 4 7 - - 0.0
04/01:30pm 20.2 18.7 9.2 49 5.8 N 7 13 4 7 - - 0.0
04/01:00pm 19.6 18.1 9.2 51 5.5 NE 7 13 4 7 - - 0.0
04/12:30pm 19.5 17.9 8.8 50 5.6 NE 7 11 4 6 - - 0.0
04/12:00pm 18.6 16.7 7.7 49 5.6 NNE 7 11 4 6 - - 0.0
04/11:30am 18.6 16.9 8.3 51 5.3 N 7 11 4 6 - - 0.0
04/11:00am 17.6 15.7 7.4 51 5.2 N 7 13 4 7 - - 0.0
04/10:30am 16.8 14.9 7.4 54 4.7 NW 7 11 4 6 - - 0.0
04/10:00am 15.3 13.4 6.8 57 4.2 WNW 6 9 3 5 - - 0.0
04/09:30am 13.6 11.4 6.2 61 3.5 W 7 11 4 6 - - 0.0
04/09:00am 11.3 8.6 5.8 69 2.6 W 9 13 5 7 - - 0.0
04/08:30am 9.6 6.5 5.4 75 1.9 WSW 11 13 6 7 - - 0.0
04/08:00am 7.9 4.3 5.0 82 1.3 W 13 19 7 10 - - 0.0
04/07:30am 6.8 3.8 4.3 84 1.1 W 9 13 5 7 - - 0.0
04/07:00am 6.0 3.0 4.2 88 0.8 W 9 13 5 7 - - 0.0
04/06:30am 6.1 2.8 4.3 88 0.8 W 11 13 6 7 - - 0.0
04/06:00am 7.0 3.7 4.8 86 1.0 W 11 15 6 8 - - 0.0
04/05:30am 7.4 4.2 5.2 86 1.0 W 11 15 6 8 - - 0.0
04/05:00am 7.4 3.8 4.9 84 1.1 W 13 19 7 10 - - 0.0
04/04:30am 7.2 3.6 5.0 86 1.0 W 13 15 7 8 - - 0.0
04/04:00am 7.1 3.5 4.9 86 1.0 W 13 17 7 9 - - 0.0
04/03:30am 7.0 3.7 4.8 86 1.0 W 11 15 6 8 - - 0.0
04/03:00am 6.6 3.3 4.6 87 0.9 W 11 15 6 8 - - 0.0
04/02:30am 6.7 3.3 4.2 84 1.1 W 11 13 6 7 - - 0.0
04/02:00am 7.3 4.1 4.9 85 1.1 W 11 13 6 7 - - 0.0
04/01:30am 6.9 3.2 4.7 86 1.0 W 13 15 7 8 - - 0.0
04/01:00am 6.2 2.5 4.5 89 0.7 W 13 15 7 8 - - 0.0
04/12:30am 6.1 2.3 4.1 87 0.9 W 13 15 7 8 - - 0.0
04/12:00am 6.3 2.6 4.5 88 0.8 W 13 17 7 9 - - 0.0
 
Date/Time
EST
Tmp

°C
App
Tmp
°C
Dew
Point
°C
Rel
Hum
%
Delta-T

°C
Wind Press
QNH
hPa
Press
MSL
hPa
Rain
since
9 am
mm
Dir
 
Spd
km/h
Gust
km/h
Spd
kts
Gust
kts
03/11:30pm 6.6 2.5 4.4 86 1.0 W 15 19 8 10 - - 0.0
03/11:00pm 6.8 3.5 4.6 86 1.0 W 11 15 6 8 - - 0.0
03/10:30pm 7.0 3.7 4.5 84 1.1 W 11 13 6 7 - - 0.0
03/10:00pm 7.5 4.6 4.8 83 1.2 SW 9 15 5 8 - - 0.0
03/09:30pm 7.7 4.8 4.8 82 1.3 WSW 9 13 5 7 - - 0.0
03/09:00pm 8.2 5.5 5.7 84 1.1 WSW 9 11 5 6 - - 0.0
03/08:30pm 7.0 4.4 4.1 82 1.3 WSW 7 9 4 5 - - 0.0
03/08:00pm 7.7 5.4 4.7 81 1.3 W 6 7 3 4 - - 0.0
03/07:30pm 9.0 6.8 5.4 78 1.6 W 6 7 3 4 - - 0.0
03/07:00pm 10.4 8.6 5.6 72 2.2 ESE 4 7 2 4 - - 0.0
03/06:30pm 10.9 8.6 4.6 65 2.9 S 6 7 3 4 - - 0.0
03/06:00pm 12.6 10.2 5.1 60 3.5 ESE 7 9 4 5 - - 0.0
03/05:30pm 14.2 11.9 5.6 56 4.1 ESE 7 9 4 5 - - 0.0
03/05:00pm 15.6 12.6 5.8 52 4.7 ESE 11 15 6 8 - - 0.0
03/04:30pm 17.4 14.0 6.0 47 5.6 ESE 13 19 7 10 - - 0.0
03/04:00pm 18.4 14.6 5.6 43 6.3 SE 15 20 8 11 - - 0.0
03/03:30pm 18.9 15.1 5.7 42 6.5 SE 15 20 8 11 - - 0.0
03/03:00pm 19.1 14.9 5.9 42 6.5 SE 17 24 9 13 - - 0.0
03/02:30pm 19.5 15.3 5.9 41 6.8 SE 17 24 9 13 - - 0.0
03/02:00pm 19.3 15.0 5.4 40 6.8 SE 17 24 9 13 - - 0.0
03/01:30pm 19.0 14.2 4.4 38 7.0 SSE 19 26 10 14 - - 0.0
03/01:00pm 18.9 14.0 4.3 38 7.0 ESE 19 24 10 13 - - 0.0
03/12:30pm 18.7 14.2 4.1 38 7.0 SSE 17 24 9 13 - - 0.0
03/12:00pm 17.6 14.4 3.1 38 6.7 SE 9 20 5 11 - - 0.0
03/11:30am 16.0 13.3 2.8 41 6.0 SSE 6 11 3 6 - - 0.0
03/11:00am 14.7 11.8 2.6 44 5.4 SSW 7 13 4 7 - - 0.0
03/10:30am 14.1 11.5 3.0 47 5.0 W 6 11 3 6 - - 0.0
03/10:00am 12.6 9.4 3.3 53 4.1 WSW 9 13 5 7 - - 0.0
03/09:30am 11.4 7.2 3.9 60 3.4 W 15 20 8 11 - - 0.0
03/09:00am 9.7 4.9 2.8 62 3.0 WSW 17 24 9 13 - - 0.0
03/08:30am 8.7 4.4 3.5 70 2.2 WSW 15 22 8 12 - - 0.0
03/08:00am 7.1 3.2 3.2 76 1.7 WSW 13 20 7 11 - - 0.0
03/07:30am 5.8 1.4 2.6 80 1.3 WSW 15 20 8 11 - - 0.0
03/07:00am 4.8 1.1 2.2 83 1.0 WSW 11 15 6 8 - - 0.0
03/06:30am 5.0 0.5 2.4 83 1.1 WSW 15 20 8 11 - - 0.0
03/06:00am 5.3 1.2 2.5 82 1.1 WSW 13 19 7 10 - - 0.0
03/05:30am 5.7 1.7 2.7 81 1.2 WSW 13 19 7 10 - - 0.0
03/05:00am 5.9 1.9 2.7 80 1.3 W 13 19 7 10 - - 0.0
03/04:30am 6.2 1.1 3.0 80 1.3 W 19 24 10 13 - - 0.0
03/04:00am 6.5 1.4 3.3 80 1.3 W 19 26 10 14 - - 0.0
03/03:30am 6.8 2.2 3.6 80 1.4 W 17 26 9 14 - - 0.0
03/03:00am 6.8 1.8 3.4 79 1.4 W 19 24 10 13 - - 0.0
03/02:30am 7.4 2.4 3.8 78 1.5 W 19 26 10 14 - - 0.0
03/02:00am 7.8 2.6 3.7 75 1.8 W 20 28 11 15 - - 0.0
03/01:30am 8.1 2.9 3.8 74 1.9 W 20 28 11 15 - - 0.0
03/01:00am 8.7 3.8 3.9 72 2.1 W 19 28 10 15 - - 0.0
03/12:30am 8.8 3.3 4.0 72 2.1 W 22 33 12 18 - - 0.0
03/12:00am 8.9 4.4 4.1 72 2.1 W 17 26 9 14 - - 0.0
 
Date/Time
EST
Tmp

°C
App
Tmp
°C
Dew
Point
°C
Rel
Hum
%
Delta-T

°C
Wind Press
QNH
hPa
Press
MSL
hPa
Rain
since
9 am
mm
Dir
 
Spd
km/h
Gust
km/h
Spd
kts
Gust
kts
02/11:30pm 9.2 4.1 4.2 71 2.2 W 20 32 11 17 - - 0.0
02/11:00pm 9.6 4.1 4.2 69 2.4 W 22 35 12 19 - - 0.0
02/10:30pm 9.6 2.1 4.4 70 2.3 W 33 46 18 25 - - 0.0
02/10:00pm 10.0 3.4 4.2 67 2.6 WSW 28 39 15 21 - - 0.0
02/09:30pm 10.2 5.1 4.1 66 2.7 WSW 20 30 11 16 - - 0.0
02/09:00pm 10.7 5.8 4.0 63 3.0 WSW 19 28 10 15 - - 0.0
02/08:30pm 11.2 5.6 3.7 60 3.3 WSW 22 32 12 17 - - 0.0
02/08:00pm 11.5 5.5 3.5 58 3.6 W 24 32 13 17 - - 0.0
02/07:30pm 12.2 5.8 3.4 55 3.9 W 26 39 14 21 - - 0.0
02/07:00pm 12.1 6.9 3.3 55 3.9 W 20 32 11 17 - - 0.0
02/06:30pm 12.2 7.5 3.2 54 4.0 W 17 24 9 13 - - 0.0
02/06:00pm 12.5 7.4 2.9 52 4.2 W 19 28 10 15 - - 0.0
02/05:30pm 13.4 7.7 2.6 48 4.8 W 22 33 12 18 - - 0.0
02/05:00pm 14.6 7.7 2.5 44 5.4 W 28 39 15 21 - - 0.0
02/04:30pm 16.1 9.5 1.8 38 6.4 W 26 35 14 19 - - 0.0
02/04:00pm 16.3 10.9 2.7 40 6.2 W 20 37 11 20 - - 0.0
02/03:30pm 16.6 10.0 1.9 37 6.6 WSW 26 37 14 20 - - 0.0
02/03:00pm 17.2 10.2 2.0 36 6.9 W 28 41 15 22 - - 0.0
02/02:30pm 18.3 11.8 2.6 35 7.2 W 26 39 14 21 - - 0.0
02/02:00pm 17.2 10.4 0.8 33 7.2 W 26 37 14 20 - - 0.0
02/01:30pm 17.1 10.6 0.3 32 7.3 W 24 35 13 19 - - 0.0
02/01:00pm 17.7 9.7 0.4 31 7.6 WSW 32 46 17 25 - - 0.0
02/12:30pm 17.9 11.8 3.0 37 6.9 W 24 35 13 19 - - 0.0
02/12:00pm 17.9 12.5 6.4 47 5.7 W 24 37 13 20 - - 0.0
02/11:30am 17.4 12.5 6.9 50 5.2 W 22 33 12 18 - - 0.0
02/11:00am 16.1 11.1 6.3 52 4.8 W 22 33 12 18 - - 0.0
02/10:30am 16.1 10.7 6.5 53 4.7 W 24 35 13 19 - - 0.0
02/10:00am 15.6 10.3 6.9 56 4.3 WSW 24 35 13 19 - - 0.0
02/09:30am 15.1 9.4 6.7 57 4.1 WSW 26 39 14 21 - - 0.0
02/09:00am 14.2 9.3 8.6 69 2.8 W 24 33 13 18 - - 0.0
02/08:30am 13.5 9.1 9.0 74 2.3 W 22 35 12 19 - - 0.0
02/08:00am 12.5 7.6 8.6 77 1.9 W 24 32 13 17 - - 0.0
02/07:30am 11.6 7.7 8.5 81 1.5 W 19 24 10 13 - - 0.0
02/07:00am 11.2 6.6 8.1 81 1.5 W 22 28 12 15 - - 0.0
02/06:30am 11.0 7.7 8.0 82 1.5 W 15 22 8 12 - - 0.0
02/06:00am 11.4 7.7 8.1 80 1.6 W 17 22 9 12 - - 0.0
02/05:30am 12.2 8.6 8.5 78 1.8 W 17 24 9 13 - - 0.0
02/05:00am 12.2 8.6 8.5 78 1.8 W 17 24 9 13 - - 0.0
02/04:30am 12.2 8.7 8.7 79 1.7 W 17 30 9 16 - - 0.0
02/04:00am 12.3 8.8 8.8 79 1.8 W 17 24 9 13 - - 0.0
02/03:30am 12.4 8.9 8.7 78 1.9 W 17 26 9 14 - - 0.0
02/03:00am 12.1 8.6 8.8 80 1.7 W 17 22 9 12 - - 0.0
02/02:30am 11.9 8.9 9.1 83 1.4 W 15 20 8 11 - - 0.0
02/02:00am 12.1 8.4 9.3 83 1.4 W 19 24 10 13 - - 0.0
02/01:30am 12.3 9.3 9.3 82 1.5 W 15 20 8 11 - - 0.0
02/01:00am 12.4 9.4 9.4 82 1.5 W 15 20 8 11 - - 0.0
02/12:30am 12.7 9.4 9.5 81 1.6 W 17 22 9 12 - - 0.0
02/12:00am 13.2 10.4 10.0 81 1.7 W 15 22 8 12 - - 0.0
 
Date/Time
EST
Tmp

°C
App
Tmp
°C
Dew
Point
°C
Rel
Hum
%
Delta-T

°C
Wind Press
QNH
hPa
Press
MSL
hPa
Rain
since
9 am
mm
Dir
 
Spd
km/h
Gust
km/h
Spd
kts
Gust
kts
01/11:30pm 13.1 10.3 9.9 81 1.7 W 15 20 8 11 - - 0.0
01/11:00pm 13.4 10.6 10.0 80 1.8 W 15 19 8 10 - - 0.0
01/10:30pm 13.5 10.0 10.1 80 1.8 W 19 28 10 15 - - 0.0
01/10:00pm 13.0 11.2 9.6 80 1.7 W 9 13 5 7 - - 0.0
01/09:30pm 13.3 10.7 9.5 78 1.9 WSW 13 20 7 11 - - 0.0
01/09:00pm 13.9 10.1 9.7 76 2.2 WSW 20 28 11 15 - - 0.0
01/08:30pm 14.1 10.3 9.9 76 2.2 WSW 20 30 11 16 - - 0.0

Latest Capital City Observations: Canberra | Sydney | Melbourne | Brisbane | Adelaide | Perth | Hobart | Darwin

Other Formats:

Comma delimited format used in spreadsheet applications
http://www.bom.gov.au/fwo/IDQ60901/IDQ60901.94562.axf

JavaScript Object Notation format (JSON) in row-major order
http://www.bom.gov.au/fwo/IDQ60901/IDQ60901.94562.json